createdAt,value
2018-05-27T00:01:21.588Z,19.79
2018-05-27T00:03:47.549Z,19.83
2018-05-27T00:06:13.482Z,19.53
2018-05-27T00:08:39.456Z,19.82
2018-05-27T00:11:05.384Z,19.56
2018-05-27T00:13:31.350Z,19.63
2018-05-27T00:15:57.334Z,19.71
2018-05-27T00:18:23.300Z,19.53
2018-05-27T00:20:49.231Z,19.48
2018-05-27T00:23:15.199Z,19.84
2018-05-27T00:25:41.157Z,19.60
2018-05-27T00:28:07.085Z,19.55
2018-05-27T00:30:33.105Z,19.50
2018-05-27T00:32:59.026Z,19.60
2018-05-27T00:35:24.998Z,19.12
2018-05-27T00:37:50.949Z,19.30
2018-05-27T00:40:16.911Z,19.24
2018-05-27T00:42:42.836Z,19.40
2018-05-27T00:45:08.836Z,18.81
2018-05-27T00:47:34.774Z,18.66
2018-05-27T00:50:00.734Z,18.99
2018-05-27T00:52:26.671Z,18.65
2018-05-27T00:54:52.644Z,18.89
2018-05-27T00:57:18.601Z,18.97
2018-05-27T00:59:44.562Z,19.22
2018-05-27T01:02:10.523Z,19.15
2018-05-27T01:04:36.493Z,19.08
2018-05-27T01:07:02.449Z,18.94
2018-05-27T01:09:28.419Z,19.01
2018-05-27T01:11:54.336Z,18.79
2018-05-27T01:14:20.281Z,19.45
2018-05-27T01:16:46.221Z,19.16
2018-05-27T01:19:12.183Z,19.44
2018-05-27T01:21:38.106Z,19.29
2018-05-27T01:24:04.075Z,19.29
2018-05-27T01:26:30.035Z,19.30
2018-05-27T01:28:55.977Z,19.11
2018-05-27T01:31:21.947Z,18.96
2018-05-27T01:33:47.913Z,19.22
2018-05-27T01:36:13.859Z,18.91
2018-05-27T01:38:39.794Z,19.06
2018-05-27T01:41:06.162Z,18.67
2018-05-27T01:43:32.090Z,18.84
2018-05-27T01:45:58.033Z,19.08
2018-05-27T01:48:23.987Z,18.56
2018-05-27T01:50:49.928Z,18.92
2018-05-27T01:53:15.866Z,18.95
2018-05-27T01:55:41.812Z,18.98
2018-05-27T01:58:07.786Z,18.79
2018-05-27T02:00:33.737Z,18.73
2018-05-27T02:02:59.685Z,18.50
2018-05-27T02:05:25.627Z,18.52
2018-05-27T02:07:51.587Z,18.68
2018-05-27T02:10:17.560Z,18.67
2018-05-27T02:12:43.500Z,18.81
2018-05-27T02:15:09.468Z,18.71
2018-05-27T02:17:35.429Z,18.34
2018-05-27T02:20:01.396Z,18.60
2018-05-27T02:22:27.328Z,18.28
2018-05-27T02:24:53.306Z,18.43
2018-05-27T02:27:19.288Z,18.50
2018-05-27T02:29:45.250Z,18.51
2018-05-27T02:32:11.196Z,18.22
2018-05-27T02:34:37.135Z,18.25
2018-05-27T02:37:03.069Z,17.93
2018-05-27T02:39:29.005Z,17.87
2018-05-27T02:41:54.969Z,18.15
2018-05-27T02:44:20.925Z,18.22
2018-05-27T02:46:46.862Z,18.04
2018-05-27T02:49:12.802Z,18.40
2018-05-27T02:51:38.725Z,18.54
2018-05-27T02:54:04.651Z,18.31
2018-05-27T02:56:30.623Z,18.19
2018-05-27T02:58:56.542Z,17.89
2018-05-27T03:01:22.494Z,17.87
2018-05-27T03:03:48.456Z,18.03
2018-05-27T03:06:14.413Z,18.11
2018-05-27T03:08:40.365Z,17.93
2018-05-27T03:11:06.359Z,17.96
2018-05-27T03:13:32.291Z,18.27
2018-05-27T03:15:58.259Z,18.02
2018-05-27T03:18:24.209Z,17.87
2018-05-27T03:20:50.172Z,17.91
2018-05-27T03:23:16.138Z,17.88
2018-05-27T03:25:42.090Z,17.66
2018-05-27T03:28:08.017Z,17.79
2018-05-27T03:30:33.957Z,17.89
2018-05-27T03:32:59.892Z,18.06
2018-05-27T03:35:25.894Z,18.10
2018-05-27T03:37:51.796Z,18.11
2018-05-27T03:40:17.740Z,17.81
2018-05-27T03:42:43.716Z,17.71
2018-05-27T03:45:09.663Z,17.70
2018-05-27T03:47:35.613Z,18.04
2018-05-27T03:50:01.562Z,18.36
2018-05-27T03:52:27.515Z,18.13
2018-05-27T03:54:53.446Z,18.30
2018-05-27T03:57:19.375Z,18.16
2018-05-27T03:59:45.321Z,18.30
2018-05-27T04:02:11.311Z,18.33
2018-05-27T04:04:37.269Z,18.16
2018-05-27T04:07:03.198Z,17.93
2018-05-27T04:09:29.152Z,18.07
2018-05-27T04:11:55.111Z,18.40
2018-05-27T04:14:21.091Z,18.70
2018-05-27T04:16:47.029Z,18.71
2018-05-27T04:19:14.037Z,18.93
2018-05-27T04:21:39.985Z,19.06
2018-05-27T04:24:05.922Z,19.16
2018-05-27T04:26:31.906Z,19.27
2018-05-27T04:28:57.866Z,19.61
2018-05-27T04:31:23.818Z,19.73
2018-05-27T04:33:49.783Z,20.04
2018-05-27T04:36:15.752Z,20.36
2018-05-27T04:38:41.730Z,20.23
2018-05-27T04:43:42.854Z,19.86
2018-05-27T04:46:08.813Z,19.86
2018-05-27T04:48:34.748Z,19.80
2018-05-27T04:51:00.679Z,20.02
2018-05-27T04:53:26.643Z,20.21
2018-05-27T04:55:52.585Z,20.32
2018-05-27T04:58:20.516Z,20.16
2018-05-27T05:00:46.458Z,20.09
2018-05-27T05:03:12.387Z,20.06
2018-05-27T05:05:38.327Z,20.37
2018-05-27T05:08:04.251Z,20.05
2018-05-27T05:10:30.173Z,19.87
2018-05-27T05:12:56.131Z,20.00
2018-05-27T05:15:22.062Z,20.16
2018-05-27T05:17:48.016Z,20.61
2018-05-27T05:20:13.945Z,20.54
2018-05-27T05:22:39.884Z,20.20
2018-05-27T05:25:05.843Z,20.93
2018-05-27T05:27:31.774Z,21.01
2018-05-27T05:29:57.722Z,20.82
2018-05-27T05:32:23.650Z,20.85
2018-05-27T05:34:49.608Z,21.02
2018-05-27T05:37:15.574Z,21.67
2018-05-27T05:39:41.512Z,21.95
2018-05-27T05:42:07.490Z,21.97
2018-05-27T05:44:33.424Z,21.91
2018-05-27T05:46:59.388Z,21.79
2018-05-27T05:49:25.356Z,21.83
2018-05-27T05:51:51.299Z,21.65
2018-05-27T05:54:17.255Z,21.63
2018-05-27T05:56:43.228Z,21.67
2018-05-27T05:59:09.180Z,21.66
2018-05-27T06:01:35.128Z,21.60
2018-05-27T06:04:01.079Z,21.30
2018-05-27T06:06:27.053Z,20.95
2018-05-27T06:08:53.046Z,21.30
2018-05-27T06:11:19.001Z,21.34
2018-05-27T06:13:44.945Z,21.21
2018-05-27T06:16:10.898Z,21.26
2018-05-27T06:18:36.860Z,21.09
2018-05-27T06:21:02.797Z,21.28
2018-05-27T06:23:28.725Z,21.39
2018-05-27T06:25:54.683Z,21.36
2018-05-27T06:28:20.635Z,21.38
2018-05-27T06:30:46.600Z,21.10
2018-05-27T06:33:12.542Z,20.56
2018-05-27T06:35:38.471Z,20.84
2018-05-27T06:38:04.405Z,20.67
2018-05-27T06:40:30.331Z,20.62
2018-05-27T06:42:56.284Z,21.00
2018-05-27T06:45:22.231Z,20.95
2018-05-27T06:47:48.184Z,20.60
2018-05-27T06:50:14.153Z,20.95
2018-05-27T06:52:40.113Z,20.82
2018-05-27T06:55:06.049Z,20.33
2018-05-27T06:57:32.022Z,20.59
2018-05-27T06:59:57.976Z,20.67
2018-05-27T07:02:23.948Z,21.01
2018-05-27T07:04:49.960Z,21.13
2018-05-27T07:07:15.837Z,20.96
2018-05-27T07:12:13.491Z,20.68
2018-05-27T07:14:39.455Z,20.94
2018-05-27T07:17:05.444Z,21.14
2018-05-27T07:19:31.341Z,21.11
2018-05-27T07:21:57.300Z,21.17
2018-05-27T07:24:23.231Z,20.69
2018-05-27T07:26:49.193Z,20.62
2018-05-27T07:29:15.147Z,20.66
2018-05-27T07:31:41.074Z,20.92
2018-05-27T07:34:07.008Z,21.09
2018-05-27T07:36:33.063Z,20.96
2018-05-27T07:38:58.997Z,21.01
2018-05-27T07:41:24.926Z,20.95
2018-05-27T07:43:50.881Z,21.36
2018-05-27T07:46:16.859Z,21.46
2018-05-27T07:48:42.821Z,21.08
2018-05-27T07:51:08.754Z,21.04
2018-05-27T07:53:35.805Z,21.20
2018-05-27T07:56:01.738Z,21.16
2018-05-27T07:58:27.785Z,20.92
2018-05-27T08:00:53.672Z,21.07
2018-05-27T08:03:19.633Z,21.15
2018-05-27T08:05:45.590Z,21.21
2018-05-27T08:08:11.549Z,21.19
2018-05-27T08:10:37.510Z,21.27
2018-05-27T08:13:03.454Z,21.18
2018-05-27T08:15:29.504Z,20.71
2018-05-27T08:17:55.444Z,20.67
2018-05-27T08:20:21.463Z,20.76
2018-05-27T08:22:48.485Z,20.66
2018-05-27T08:25:14.421Z,20.61
2018-05-27T08:27:40.374Z,20.60
2018-05-27T08:30:06.323Z,20.67
2018-05-27T08:32:33.316Z,20.97
2018-05-27T08:34:59.276Z,20.79
2018-05-27T08:37:25.234Z,21.06
2018-05-27T08:39:51.279Z,20.82
2018-05-27T08:42:17.257Z,20.58
2018-05-27T08:44:47.094Z,20.58
2018-05-27T08:47:13.184Z,20.69
2018-05-27T08:49:39.144Z,21.08
2018-05-27T08:52:05.244Z,21.29
2018-05-27T08:54:31.216Z,21.00
2018-05-27T08:56:57.233Z,21.02
2018-05-27T08:59:23.220Z,21.03
2018-05-27T09:01:49.225Z,21.17
2018-05-27T09:04:15.202Z,20.93
2018-05-27T09:06:41.228Z,20.83
2018-05-27T09:09:07.192Z,21.05
2018-05-27T09:11:35.249Z,21.16
2018-05-27T09:14:01.229Z,21.22
2018-05-27T09:16:27.248Z,21.53
2018-05-27T09:18:53.308Z,21.54
2018-05-27T09:21:19.338Z,21.68
2018-05-27T09:23:45.442Z,21.86
2018-05-27T09:26:11.417Z,21.87
2018-05-27T09:28:37.443Z,21.86
2018-05-27T09:31:03.454Z,22.02
2018-05-27T09:33:29.450Z,22.01
2018-05-27T09:35:56.325Z,22.05
2018-05-27T09:38:22.371Z,22.03
2018-05-27T09:40:48.365Z,21.99
2018-05-27T09:43:14.478Z,22.28
2018-05-27T09:45:40.515Z,22.42
2018-05-27T09:48:11.149Z,22.45
2018-05-27T09:50:37.322Z,22.48
2018-05-27T09:53:03.395Z,22.55
2018-05-27T09:55:29.597Z,22.60
2018-05-27T09:57:55.647Z,22.64
2018-05-27T10:00:23.838Z,22.74
2018-05-27T10:02:50.933Z,22.84
2018-05-27T10:05:17.240Z,22.88
2018-05-27T10:07:43.636Z,22.92
2018-05-27T10:10:12.637Z,22.91
2018-05-27T10:12:39.708Z,22.91
2018-05-27T10:15:07.168Z,22.92
2018-05-27T10:17:33.310Z,22.94
2018-05-27T10:20:00.767Z,23.00
2018-05-27T10:22:27.147Z,23.06
2018-05-27T10:24:53.234Z,23.02
2018-05-27T10:27:19.211Z,23.09
2018-05-27T10:29:45.281Z,23.20
2018-05-27T10:32:11.369Z,23.33
2018-05-27T10:34:37.395Z,23.40
2018-05-27T10:37:03.394Z,23.37
2018-05-27T10:39:30.795Z,23.47
2018-05-27T10:41:56.874Z,23.52
2018-05-27T10:44:23.013Z,23.44
2018-05-27T10:46:48.996Z,23.47
2018-05-27T10:49:14.961Z,23.50
2018-05-27T10:51:41.155Z,23.61
2018-05-27T10:54:07.154Z,23.64
2018-05-27T10:56:33.142Z,23.69
2018-05-27T10:58:59.152Z,23.71
2018-05-27T11:01:25.115Z,23.77
2018-05-27T11:03:51.113Z,23.74
2018-05-27T11:06:17.131Z,23.69
2018-05-27T11:08:43.103Z,23.78
2018-05-27T11:11:09.074Z,23.80
2018-05-27T11:13:35.079Z,23.87
2018-05-27T11:16:01.048Z,23.90
2018-05-27T11:18:27.091Z,23.94
2018-05-27T11:20:53.065Z,23.89
2018-05-27T11:23:19.032Z,23.96
2018-05-27T11:25:45.018Z,24.12
2018-05-27T11:28:11.002Z,24.06
2018-05-27T11:30:36.961Z,23.92
2018-05-27T11:33:02.943Z,23.82
2018-05-27T11:35:28.928Z,23.99
2018-05-27T11:37:54.874Z,23.93
2018-05-27T11:40:20.826Z,23.89
2018-05-27T11:42:46.761Z,23.91
2018-05-27T11:45:12.717Z,23.92
2018-05-27T11:47:38.657Z,24.02
2018-05-27T11:50:04.619Z,23.09
2018-05-27T11:52:30.566Z,23.80
2018-05-27T11:54:56.524Z,23.92
2018-05-27T11:57:22.497Z,23.89
2018-05-27T11:59:48.458Z,23.90
2018-05-27T12:02:14.487Z,23.82
2018-05-27T12:04:40.457Z,24.03
2018-05-27T12:07:06.418Z,24.35
2018-05-27T12:09:32.464Z,24.17
2018-05-27T12:11:58.338Z,24.16
2018-05-27T12:14:24.303Z,24.57
2018-05-27T12:16:50.347Z,24.68
2018-05-27T12:19:16.366Z,24.36
2018-05-27T12:21:43.341Z,24.31
2018-05-27T12:24:09.450Z,24.42
2018-05-27T12:26:35.389Z,24.46
2018-05-27T12:29:02.440Z,24.38
2018-05-27T12:31:29.467Z,24.42
2018-05-27T12:33:55.481Z,24.85
2018-05-27T12:36:21.525Z,24.71
2018-05-27T12:38:47.548Z,24.72
2018-05-27T12:41:14.610Z,24.53
2018-05-27T12:43:40.638Z,24.49
2018-05-27T12:46:06.665Z,24.70
2018-05-27T12:48:35.964Z,24.93
2018-05-27T12:51:03.077Z,24.82
2018-05-27T12:53:30.068Z,25.00
2018-05-27T12:55:58.121Z,24.60
2018-05-27T12:58:24.069Z,24.75
2018-05-27T13:00:53.240Z,24.69
2018-05-27T13:03:19.221Z,24.55
2018-05-27T13:05:47.209Z,24.78
2018-05-27T13:08:13.271Z,24.70
2018-05-27T13:10:39.212Z,24.78
2018-05-27T13:13:05.166Z,24.74
2018-05-27T13:15:31.216Z,24.70
2018-05-27T13:17:57.261Z,24.74
2018-05-27T13:20:23.270Z,24.69
2018-05-27T13:22:49.294Z,24.87
2018-05-27T13:25:15.274Z,24.88
2018-05-27T13:27:41.352Z,25.11
2018-05-27T13:30:08.448Z,25.06
2018-05-27T13:32:34.530Z,25.23
2018-05-27T13:35:04.547Z,25.18
2018-05-27T13:37:30.573Z,25.10
2018-05-27T13:39:56.570Z,25.10
2018-05-27T13:42:22.645Z,25.31
2018-05-27T13:44:48.657Z,25.15
2018-05-27T13:47:14.642Z,25.29
2018-05-27T13:49:40.684Z,25.41
2018-05-27T13:52:06.742Z,25.22
2018-05-27T13:54:32.736Z,25.24
2018-05-27T13:56:58.759Z,24.89
2018-05-27T13:59:24.820Z,24.91
2018-05-27T14:01:50.811Z,24.89
2018-05-27T14:04:16.903Z,25.09
2018-05-27T14:06:42.980Z,25.12
2018-05-27T14:09:08.986Z,25.37
2018-05-27T14:11:34.990Z,24.99
2018-05-27T14:14:01.941Z,24.91
2018-05-27T14:16:27.967Z,25.08
2018-05-27T14:18:54.016Z,25.01
2018-05-27T14:21:21.023Z,25.13
2018-05-27T14:23:47.054Z,25.38
2018-05-27T14:26:13.026Z,25.12
2018-05-27T14:28:38.992Z,24.97
2018-05-27T14:31:05.036Z,24.94
2018-05-27T14:33:31.004Z,25.24
2018-05-27T14:35:56.972Z,25.09
2018-05-27T14:38:23.023Z,25.12
2018-05-27T14:40:49.023Z,25.08
2018-05-27T14:43:15.081Z,25.22
2018-05-27T14:45:41.068Z,25.26
2018-05-27T14:48:07.017Z,25.11
2018-05-27T14:50:33.037Z,25.08
2018-05-27T14:52:59.058Z,25.19
2018-05-27T14:55:25.076Z,25.38
2018-05-27T14:57:51.189Z,25.19
2018-05-27T15:00:17.152Z,24.96
2018-05-27T15:02:43.166Z,25.00
2018-05-27T15:05:09.117Z,25.35
2018-05-27T15:07:35.078Z,25.07
2018-05-27T15:10:01.106Z,25.04
2018-05-27T15:12:27.172Z,24.98
2018-05-27T15:14:53.188Z,24.93
2018-05-27T15:17:19.176Z,25.00
2018-05-27T15:19:45.212Z,25.09
2018-05-27T15:22:11.265Z,25.04
2018-05-27T15:24:37.253Z,25.04
2018-05-27T15:27:03.250Z,25.20
2018-05-27T15:29:29.222Z,24.90
2018-05-27T15:31:55.268Z,25.28
2018-05-27T15:34:21.264Z,25.25
2018-05-27T15:36:47.304Z,25.11
2018-05-27T15:39:13.613Z,25.30
2018-05-27T15:41:39.638Z,25.26
2018-05-27T15:44:05.653Z,25.04
2018-05-27T15:46:31.750Z,25.02
2018-05-27T15:48:57.805Z,24.92
2018-05-27T15:51:24.848Z,25.32
2018-05-27T15:53:50.953Z,25.45
2018-05-27T15:56:16.927Z,25.34
2018-05-27T15:58:42.917Z,25.09
2018-05-27T16:01:08.965Z,25.10
2018-05-27T16:03:34.972Z,24.98
2018-05-27T16:06:00.985Z,25.18
2018-05-27T16:08:27.084Z,25.08
2018-05-27T16:10:53.059Z,24.99
2018-05-27T16:13:19.029Z,25.07
2018-05-27T16:15:45.001Z,24.99
2018-05-27T16:18:11.035Z,24.87
2018-05-27T16:20:37.034Z,24.90
2018-05-27T16:23:04.145Z,25.09
2018-05-27T16:25:30.148Z,24.99
2018-05-27T16:27:56.154Z,25.04
2018-05-27T16:30:22.145Z,24.96
2018-05-27T16:32:48.192Z,24.87
2018-05-27T16:35:14.224Z,24.89
2018-05-27T16:37:42.270Z,24.96
2018-05-27T16:40:08.454Z,24.97
2018-05-27T16:42:34.526Z,24.92
2018-05-27T16:45:00.565Z,24.96
2018-05-27T16:47:26.586Z,24.89
2018-05-27T16:49:52.529Z,24.97
2018-05-27T16:52:18.478Z,24.87
2018-05-27T16:54:44.473Z,24.87
2018-05-27T16:57:10.495Z,24.87
2018-05-27T16:59:36.452Z,24.82
2018-05-27T17:02:02.417Z,24.81
2018-05-27T17:04:28.368Z,24.84
2018-05-27T17:06:54.354Z,24.83
2018-05-27T17:09:20.357Z,24.83
2018-05-27T17:11:46.363Z,24.82
2018-05-27T17:14:12.347Z,24.76
2018-05-27T17:16:38.356Z,24.85
2018-05-27T17:19:04.392Z,24.95
2018-05-27T17:21:30.361Z,24.85
2018-05-27T17:23:56.361Z,24.92
2018-05-27T17:26:22.347Z,24.92
2018-05-27T17:28:48.381Z,24.98
2018-05-27T17:31:14.383Z,24.89
2018-05-27T17:33:41.479Z,24.95
2018-05-27T17:36:07.446Z,25.01
2018-05-27T17:38:33.419Z,24.99
2018-05-27T17:40:59.368Z,24.96
2018-05-27T17:43:25.335Z,24.93
2018-05-27T17:45:51.286Z,24.94
2018-05-27T17:48:17.308Z,25.04
2018-05-27T17:50:43.303Z,25.01
2018-05-27T17:53:09.245Z,25.00
2018-05-27T17:55:35.277Z,24.98
2018-05-27T17:58:01.237Z,25.02
2018-05-27T18:00:27.211Z,25.03
2018-05-27T18:02:54.297Z,24.95
2018-05-27T18:05:20.278Z,24.92
2018-05-27T18:07:46.251Z,24.90
2018-05-27T18:10:12.205Z,24.86
2018-05-27T18:12:38.187Z,24.92
2018-05-27T18:15:04.189Z,24.88
2018-05-27T18:17:30.163Z,24.91
2018-05-27T18:19:56.160Z,24.82
2018-05-27T18:22:22.134Z,24.88
2018-05-27T18:24:48.097Z,24.86
2018-05-27T18:27:14.121Z,24.83
2018-05-27T18:29:40.099Z,24.77
2018-05-27T18:32:06.060Z,24.83
2018-05-27T18:34:32.241Z,24.85
2018-05-27T18:36:59.316Z,24.76
2018-05-27T18:39:28.482Z,24.77
2018-05-27T18:41:54.522Z,24.77
2018-05-27T18:44:21.663Z,24.79
2018-05-27T18:46:47.649Z,24.86
2018-05-27T18:49:13.731Z,24.90
2018-05-27T18:51:39.752Z,24.94
2018-05-27T18:54:06.795Z,24.86
2018-05-27T18:56:32.844Z,24.78
2018-05-27T18:58:58.864Z,24.79
2018-05-27T19:01:24.960Z,24.63
2018-05-27T19:03:50.963Z,24.71
2018-05-27T19:06:17.065Z,24.77
2018-05-27T19:08:43.039Z,24.72
2018-05-27T19:11:08.977Z,24.71
2018-05-27T19:13:34.947Z,24.74
2018-05-27T19:16:00.916Z,24.71
2018-05-27T19:18:26.857Z,24.67
2018-05-27T19:20:52.826Z,24.51
2018-05-27T19:23:19.463Z,24.51
2018-05-27T19:25:45.459Z,24.51
2018-05-27T19:28:11.398Z,24.56
2018-05-27T19:30:37.355Z,24.47
2018-05-27T19:33:03.371Z,24.31
2018-05-27T19:35:29.361Z,24.33
2018-05-27T19:37:55.357Z,24.23
2018-05-27T19:40:21.347Z,24.19
2018-05-27T19:42:47.354Z,24.09
2018-05-27T19:45:13.416Z,24.02
2018-05-27T19:47:39.410Z,23.94
2018-05-27T19:50:05.520Z,23.86
2018-05-27T19:52:31.504Z,23.76
2018-05-27T19:54:57.450Z,23.74
2018-05-27T19:57:23.446Z,23.83
2018-05-27T19:59:49.435Z,23.86
2018-05-27T20:02:15.419Z,23.77
2018-05-27T20:04:41.377Z,23.75
2018-05-27T20:07:07.311Z,23.69
2018-05-27T20:09:33.290Z,23.60
2018-05-27T20:11:59.278Z,23.44
2018-05-27T20:14:25.233Z,23.43
2018-05-27T20:16:51.260Z,23.33
2018-05-27T20:19:17.307Z,23.39
2018-05-27T20:21:43.246Z,23.29
2018-05-27T20:24:09.190Z,23.28
2018-05-27T20:26:35.284Z,23.17
2018-05-27T20:29:01.333Z,22.97
2018-05-27T20:31:27.315Z,22.96
2018-05-27T20:33:53.288Z,22.92
2018-05-27T20:36:21.047Z,22.93
2018-05-27T20:38:51.292Z,22.88
2018-05-27T20:41:17.293Z,22.73
2018-05-27T20:43:43.243Z,22.53
2018-05-27T20:46:09.206Z,22.50
2018-05-27T20:48:35.178Z,22.46
2018-05-27T20:51:01.137Z,22.46
2018-05-27T20:53:27.084Z,22.55
2018-05-27T20:55:53.051Z,22.50
2018-05-27T20:58:18.998Z,22.60
2018-05-27T21:00:45.045Z,22.50
2018-05-27T21:03:11.063Z,22.45
2018-05-27T21:05:37.036Z,22.43
2018-05-27T21:08:02.994Z,22.48
2018-05-27T21:10:28.986Z,22.51
2018-05-27T21:12:54.934Z,22.47
2018-05-27T21:15:20.941Z,22.39
2018-05-27T21:17:46.935Z,22.35
2018-05-27T21:20:12.874Z,22.43
2018-05-27T21:22:38.867Z,22.46
2018-05-27T21:25:04.870Z,22.44
2018-05-27T21:27:30.832Z,22.38
2018-05-27T21:29:56.769Z,22.61
2018-05-27T21:32:22.706Z,22.72
2018-05-27T21:34:48.715Z,22.39
2018-05-27T21:37:14.734Z,22.45
2018-05-27T21:39:40.655Z,22.32
2018-05-27T21:42:06.645Z,22.31
2018-05-27T21:44:32.606Z,22.18
2018-05-27T21:46:58.549Z,22.14
2018-05-27T21:49:24.528Z,22.02
2018-05-27T21:51:50.474Z,22.02
2018-05-27T21:54:16.427Z,22.10
2018-05-27T21:56:42.403Z,21.79
2018-05-27T21:59:08.327Z,21.88
2018-05-27T22:01:34.279Z,22.07
2018-05-27T22:04:00.244Z,21.80
2018-05-27T22:06:26.220Z,21.83
2018-05-27T22:08:52.195Z,21.80
2018-05-27T22:11:18.142Z,21.69
2018-05-27T22:13:44.105Z,21.79
2018-05-27T22:16:10.101Z,21.72
2018-05-27T22:18:36.059Z,21.73
2018-05-27T22:21:02.028Z,21.90
2018-05-27T22:23:27.972Z,22.04
2018-05-27T22:25:53.953Z,22.14
2018-05-27T22:28:19.885Z,21.92
2018-05-27T22:30:45.915Z,22.00
2018-05-27T22:33:11.876Z,21.80
2018-05-27T22:35:37.852Z,21.47
2018-05-27T22:38:03.820Z,21.46
2018-05-27T22:40:29.793Z,21.61
2018-05-27T22:42:55.755Z,21.44
2018-05-27T22:45:21.689Z,21.46
2018-05-27T22:47:47.662Z,21.39
2018-05-27T22:50:13.607Z,21.39
2018-05-27T22:52:39.554Z,21.16
2018-05-27T22:55:05.530Z,21.20
2018-05-27T22:57:31.501Z,21.24
2018-05-27T22:59:57.465Z,21.29
2018-05-27T23:02:23.440Z,21.27
2018-05-27T23:04:49.410Z,21.11
2018-05-27T23:07:15.378Z,21.08
2018-05-27T23:09:41.361Z,21.13
2018-05-27T23:12:07.311Z,21.29
2018-05-27T23:14:33.269Z,21.03
2018-05-27T23:16:59.268Z,21.21
2018-05-27T23:19:25.264Z,20.97
2018-05-27T23:21:52.416Z,21.15
2018-05-27T23:24:18.362Z,21.13
2018-05-27T23:26:44.327Z,21.20
2018-05-27T23:29:10.265Z,21.31
2018-05-27T23:31:36.241Z,21.48
2018-05-27T23:34:02.200Z,21.41
2018-05-27T23:36:28.164Z,21.22
2018-05-27T23:38:54.113Z,21.04
2018-05-27T23:41:20.073Z,20.57
2018-05-27T23:43:46.033Z,20.52
2018-05-27T23:46:11.994Z,20.54
2018-05-27T23:48:37.936Z,20.53
2018-05-27T23:51:03.874Z,20.69
2018-05-27T23:53:29.805Z,20.66
2018-05-27T23:55:55.741Z,20.74
2018-05-27T23:58:21.688Z,20.51
